createdAt,value
2023-05-18T00:02:03.618Z,100.00
2023-05-18T00:04:35.782Z,100.00
2023-05-18T00:07:08.212Z,100.00
2023-05-18T00:09:38.512Z,100.00
2023-05-18T00:12:10.519Z,100.00
2023-05-18T00:14:44.598Z,100.00
2023-05-18T00:17:16.210Z,100.00
2023-05-18T00:19:51.483Z,100.00
2023-05-18T00:22:21.334Z,100.00
2023-05-18T00:24:53.681Z,100.00
2023-05-18T00:27:56.353Z,100.00
2023-05-18T00:30:33.081Z,100.00
2023-05-18T00:33:03.316Z,100.00
2023-05-18T00:35:35.598Z,100.00
2023-05-18T00:38:11.064Z,100.00
2023-05-18T00:40:41.988Z,100.00
2023-05-18T00:43:22.359Z,100.00
2023-05-18T00:45:54.058Z,100.00
2023-05-18T00:48:23.336Z,100.00
2023-05-18T00:50:53.475Z,100.00
2023-05-18T00:53:25.303Z,100.00
2023-05-18T00:55:56.370Z,100.00
2023-05-18T00:58:31.474Z,100.00
2023-05-18T01:01:06.346Z,100.00
2023-05-18T01:03:39.270Z,100.00
2023-05-18T01:06:13.490Z,100.00
2023-05-18T01:08:48.940Z,100.00
2023-05-18T01:11:29.668Z,100.00
2023-05-18T01:14:11.754Z,100.00
2023-05-18T01:16:52.413Z,100.00
2023-05-18T01:20:17.136Z,100.00
2023-05-18T01:23:32.548Z,100.00
2023-05-18T01:26:16.225Z,100.00
2023-05-18T01:28:48.350Z,100.00
2023-05-18T01:31:21.099Z,100.00
2023-05-18T01:33:57.222Z,100.00
2023-05-18T01:36:26.640Z,100.00
2023-05-18T01:39:01.879Z,100.00
2023-05-18T01:41:41.135Z,100.00
2023-05-18T01:44:15.902Z,100.00
2023-05-18T01:46:57.082Z,100.00
2023-05-18T01:49:35.539Z,100.00
2023-05-18T01:52:14.947Z,100.00
2023-05-18T01:54:52.977Z,100.00
2023-05-18T01:57:29.011Z,100.00
2023-05-18T02:00:11.455Z,100.00
2023-05-18T02:02:40.596Z,100.00
2023-05-18T02:05:12.865Z,100.00
2023-05-18T02:07:44.256Z,100.00
2023-05-18T02:10:18.147Z,100.00
2023-05-18T02:12:54.504Z,100.00
2023-05-18T02:15:25.808Z,100.00
2023-05-18T02:17:59.369Z,100.00
2023-05-18T02:20:34.353Z,100.00
2023-05-18T02:23:09.598Z,100.00
2023-05-18T02:25:39.915Z,100.00
2023-05-18T02:28:13.364Z,100.00
2023-05-18T02:30:43.717Z,100.00
2023-05-18T02:33:14.181Z,100.00
2023-05-18T02:35:44.062Z,100.00
2023-05-18T02:38:15.232Z,100.00
2023-05-18T02:40:44.499Z,100.00
2023-05-18T02:43:21.698Z,100.00
2023-05-18T02:45:52.072Z,100.00
2023-05-18T02:48:21.828Z,100.00
2023-05-18T02:50:52.748Z,100.00
2023-05-18T02:53:24.420Z,100.00
2023-05-18T02:55:58.781Z,100.00
2023-05-18T02:58:33.472Z,100.00
2023-05-18T03:01:04.219Z,100.00
2023-05-18T03:03:35.805Z,100.00
2023-05-18T03:06:08.632Z,100.00
2023-05-18T03:08:43.155Z,100.00
2023-05-18T03:11:16.552Z,100.00
2023-05-18T03:13:47.682Z,100.00
2023-05-18T03:16:18.048Z,100.00
2023-05-18T03:18:48.740Z,100.00
2023-05-18T03:21:20.144Z,100.00
2023-05-18T03:23:54.243Z,100.00
2023-05-18T03:26:31.338Z,100.00
2023-05-18T03:29:06.365Z,100.00
2023-05-18T03:31:36.718Z,100.00
2023-05-18T03:34:06.985Z,100.00
2023-05-18T03:36:41.257Z,100.00
2023-05-18T03:39:13.343Z,100.00
2023-05-18T03:41:45.331Z,100.00
2023-05-18T03:44:16.370Z,100.00
2023-05-18T03:46:51.542Z,100.00
2023-05-18T03:49:23.973Z,100.00
2023-05-18T03:51:56.780Z,100.00
2023-05-18T03:54:33.758Z,100.00
2023-05-18T03:57:06.535Z,100.00
2023-05-18T03:59:39.382Z,100.00
2023-05-18T04:02:09.764Z,100.00
2023-05-18T04:04:46.518Z,100.00
2023-05-18T04:07:17.910Z,100.00
2023-05-18T04:09:46.514Z,100.00
2023-05-18T04:12:15.669Z,100.00
2023-05-18T04:14:49.645Z,100.00
2023-05-18T04:17:22.439Z,100.00
2023-05-18T04:19:53.566Z,100.00
2023-05-18T04:22:25.957Z,100.00
2023-05-18T04:25:12.036Z,100.00
2023-05-18T04:27:55.060Z,100.00
2023-05-18T04:30:36.045Z,100.00
2023-05-18T04:33:17.030Z,100.00
2023-05-18T04:36:01.454Z,100.00
2023-05-18T04:38:39.485Z,100.00
2023-05-18T04:41:12.383Z,100.00
2023-05-18T04:43:53.550Z,100.00
2023-05-18T04:46:29.371Z,100.00
2023-05-18T04:48:59.315Z,100.00
2023-05-18T04:51:31.192Z,100.00
2023-05-18T04:54:13.349Z,100.00
2023-05-18T04:56:43.377Z,100.00
2023-05-18T04:59:38.726Z,100.00
2023-05-18T05:09:30.868Z,100.00
2023-05-18T05:12:00.044Z,100.00
2023-05-18T05:14:28.593Z,100.00
2023-05-18T05:16:57.372Z,100.00
2023-05-18T05:19:27.322Z,100.00
2023-05-18T05:21:57.107Z,100.00
2023-05-18T05:24:25.620Z,100.00
2023-05-18T05:26:56.104Z,100.00
2023-05-18T05:29:26.584Z,100.00
2023-05-18T05:31:55.101Z,100.00
2023-05-18T05:34:23.639Z,100.00
2023-05-18T05:36:52.031Z,100.00
2023-05-18T05:39:23.253Z,100.00
2023-05-18T05:41:51.949Z,100.00
2023-05-18T05:44:22.342Z,100.00
2023-05-18T05:46:51.409Z,100.00
2023-05-18T05:49:20.465Z,100.00
2023-05-18T05:51:49.108Z,100.00
2023-05-18T05:54:17.924Z,100.00
2023-05-18T05:56:46.470Z,100.00
2023-05-18T05:59:15.225Z,100.00
2023-05-18T06:01:45.254Z,100.00
2023-05-18T06:04:16.014Z,100.00
2023-05-18T06:06:45.029Z,100.00
2023-05-18T06:09:13.926Z,100.00
2023-05-18T06:11:42.710Z,100.00
2023-05-18T06:14:12.312Z,100.00
2023-05-18T06:16:42.159Z,100.00
2023-05-18T06:19:12.481Z,100.00
2023-05-18T06:21:41.041Z,100.00
2023-05-18T06:24:13.276Z,100.00
2023-05-18T06:26:41.829Z,100.00
2023-05-18T06:29:10.302Z,100.00
2023-05-18T06:31:38.765Z,100.00
2023-05-18T06:34:07.092Z,100.00
2023-05-18T06:36:38.190Z,100.00
2023-05-18T06:39:07.319Z,100.00
2023-05-18T06:41:36.073Z,100.00
2023-05-18T06:44:05.841Z,100.00
2023-05-18T06:46:34.942Z,100.00
2023-05-18T06:49:04.168Z,100.00
2023-05-18T06:51:33.831Z,100.00
2023-05-18T06:54:10.199Z,100.00
2023-05-18T06:56:40.257Z,100.00
2023-05-18T06:59:09.200Z,100.00
2023-05-18T07:01:38.380Z,100.00
2023-05-18T07:04:08.121Z,100.00
2023-05-18T07:06:36.937Z,100.00
2023-05-18T07:09:08.106Z,100.00
2023-05-18T07:11:40.086Z,100.00
2023-05-18T07:14:10.325Z,100.00
2023-05-18T07:16:39.902Z,100.00
2023-05-18T07:19:08.933Z,100.00
2023-05-18T07:21:38.518Z,100.00
2023-05-18T07:24:10.514Z,100.00
2023-05-18T07:26:40.077Z,100.00
2023-05-18T07:29:09.252Z,100.00
2023-05-18T07:31:41.590Z,100.00
2023-05-18T07:34:12.691Z,100.00
2023-05-18T07:36:41.623Z,100.00
2023-05-18T07:39:19.498Z,100.00
2023-05-18T07:41:50.158Z,100.00
2023-05-18T07:44:18.995Z,100.00
2023-05-18T07:46:47.726Z,100.00
2023-05-18T07:49:16.279Z,100.00
2023-05-18T07:51:44.691Z,100.00
2023-05-18T07:54:14.836Z,100.00
2023-05-18T07:56:44.309Z,100.00
2023-05-18T07:59:12.920Z,100.00
2023-05-18T08:01:41.610Z,100.00
2023-05-18T08:04:10.055Z,100.00
2023-05-18T08:06:38.414Z,100.00
2023-05-18T08:09:07.194Z,100.00
2023-05-18T08:11:37.843Z,100.00
2023-05-18T08:14:07.692Z,100.00
2023-05-18T08:16:37.726Z,100.00
2023-05-18T08:19:06.624Z,100.00
2023-05-18T08:21:35.564Z,100.00
2023-05-18T08:24:04.746Z,100.00
2023-05-18T08:26:33.477Z,100.00
2023-05-18T08:29:09.721Z,100.00
2023-05-18T08:31:38.647Z,100.00
2023-05-18T08:34:08.225Z,100.00
2023-05-18T08:36:37.762Z,100.00
2023-05-18T08:39:06.323Z,100.00
2023-05-18T08:41:42.865Z,100.00
2023-05-18T08:44:21.747Z,100.00
2023-05-18T08:46:52.413Z,100.00
2023-05-18T08:49:22.531Z,100.00
2023-05-18T08:52:01.873Z,100.00
2023-05-18T08:54:32.885Z,100.00
2023-05-18T08:57:03.421Z,100.00
2023-05-18T08:59:42.241Z,100.00
2023-05-18T09:02:15.594Z,100.00
2023-05-18T09:04:46.029Z,100.00
2023-05-18T09:07:16.647Z,100.00
2023-05-18T09:09:46.337Z,100.00
2023-05-18T09:12:16.375Z,100.00
2023-05-18T09:14:47.585Z,100.00
2023-05-18T09:17:16.574Z,100.00
2023-05-18T09:19:46.067Z,100.00
2023-05-18T09:22:16.332Z,100.00
2023-05-18T09:24:46.412Z,100.00
2023-05-18T09:27:14.997Z,100.00
2023-05-18T09:29:56.630Z,100.00
2023-05-18T09:32:26.978Z,100.00
2023-05-18T09:34:55.528Z,100.00
2023-05-18T09:37:24.681Z,100.00
2023-05-18T09:40:01.372Z,100.00
2023-05-18T09:42:38.755Z,100.00
2023-05-18T09:45:19.056Z,100.00
2023-05-18T09:47:48.470Z,100.00
2023-05-18T09:50:20.455Z,100.00
2023-05-18T09:52:51.055Z,100.00
2023-05-18T09:55:22.967Z,100.00
2023-05-18T09:57:52.311Z,100.00
2023-05-18T10:00:25.454Z,100.00
2023-05-18T10:02:59.190Z,100.00
2023-05-18T10:05:34.831Z,100.00
2023-05-18T10:08:05.050Z,100.00
2023-05-18T10:10:35.259Z,100.00
2023-05-18T10:13:03.957Z,100.00
2023-05-18T10:15:34.480Z,100.00
2023-05-18T10:18:07.766Z,100.00
2023-05-18T10:20:36.586Z,100.00
2023-05-18T10:23:08.517Z,100.00
2023-05-18T10:25:38.257Z,100.00
2023-05-18T10:28:11.352Z,100.00
2023-05-18T10:30:43.124Z,100.00
2023-05-18T10:33:24.671Z,100.00
2023-05-18T10:35:57.869Z,100.00
2023-05-18T10:38:28.693Z,100.00
2023-05-18T10:41:00.415Z,100.00
2023-05-18T10:43:29.984Z,100.00
2023-05-18T10:46:02.341Z,100.00
2023-05-18T10:48:31.893Z,100.00
2023-05-18T10:51:00.731Z,100.00
2023-05-18T10:53:30.669Z,100.00
2023-05-18T10:55:59.359Z,100.00
2023-05-18T10:58:30.926Z,100.00
2023-05-18T11:01:03.283Z,100.00
2023-05-18T11:03:34.723Z,100.00
2023-05-18T11:06:10.428Z,100.00
2023-05-18T11:08:48.003Z,100.00
2023-05-18T11:11:19.233Z,100.00
2023-05-18T11:13:52.437Z,100.00
2023-05-18T11:16:29.937Z,100.00
2023-05-18T11:19:08.068Z,100.00
2023-05-18T11:21:55.127Z,100.00
2023-05-18T11:24:31.280Z,100.00
2023-05-18T11:27:03.647Z,100.00
2023-05-18T11:29:35.521Z,100.00
2023-05-18T11:32:29.902Z,100.00
2023-05-18T11:34:59.964Z,100.00
2023-05-18T11:37:50.864Z,100.00
2023-05-18T11:40:49.101Z,100.00
2023-05-18T11:43:23.498Z,100.00
2023-05-18T11:45:58.936Z,91.71
2023-05-18T11:48:31.207Z,97.05
2023-05-18T11:51:00.361Z,100.00
2023-05-18T11:53:31.315Z,100.00
2023-05-18T11:56:01.547Z,94.69
2023-05-18T11:58:32.897Z,97.92
2023-05-18T12:01:04.045Z,100.00
2023-05-18T12:03:35.900Z,89.21
2023-05-18T12:06:10.583Z,96.92
2023-05-18T12:08:44.103Z,96.18
2023-05-18T12:11:15.244Z,94.89
2023-05-18T12:13:44.488Z,94.49
2023-05-18T12:16:14.620Z,93.99
2023-05-18T12:18:50.901Z,92.63
2023-05-18T12:21:26.987Z,89.48
2023-05-18T12:24:00.552Z,83.69
2023-05-18T12:26:29.898Z,84.92
2023-05-18T12:28:58.830Z,86.93
2023-05-18T12:31:27.750Z,80.70
2023-05-18T12:33:59.337Z,86.76
2023-05-18T12:36:28.193Z,82.91
2023-05-18T12:38:56.795Z,86.80
2023-05-18T12:41:27.690Z,81.82
2023-05-18T12:43:58.879Z,83.79
2023-05-18T12:46:31.842Z,88.62
2023-05-18T12:49:04.727Z,88.63
2023-05-18T12:51:49.962Z,80.27
2023-05-18T12:54:29.860Z,81.12
2023-05-18T12:57:02.090Z,85.95
2023-05-18T12:59:30.974Z,87.79
2023-05-18T13:02:00.116Z,88.61
2023-05-18T13:04:36.628Z,90.83
2023-05-18T13:07:06.201Z,80.33
2023-05-18T13:09:35.419Z,82.21
2023-05-18T13:12:07.776Z,78.17
2023-05-18T13:14:41.103Z,73.87
2023-05-18T13:17:10.075Z,71.50
2023-05-18T13:19:40.299Z,76.79
2023-05-18T13:22:09.897Z,80.65
2023-05-18T13:24:43.252Z,79.27
2023-05-18T13:27:12.041Z,79.66
2023-05-18T13:29:41.102Z,78.18
2023-05-18T13:32:10.023Z,71.02
2023-05-18T13:34:40.783Z,68.26
2023-05-18T13:37:10.378Z,75.00
2023-05-18T13:39:40.624Z,68.50
2023-05-18T13:42:09.748Z,62.00
2023-05-18T13:44:38.430Z,65.57
2023-05-18T13:47:07.709Z,61.37
2023-05-18T13:49:36.228Z,60.71
2023-05-18T13:52:06.654Z,58.26
2023-05-18T13:54:35.179Z,58.20
2023-05-18T13:57:03.896Z,58.83
2023-05-18T13:59:34.755Z,60.62
2023-05-18T14:02:03.406Z,58.08
2023-05-18T14:04:32.033Z,53.70
2023-05-18T14:07:00.667Z,54.57
2023-05-18T14:09:31.030Z,56.53
2023-05-18T14:12:00.445Z,52.01
2023-05-18T14:14:28.922Z,54.36
2023-05-18T14:16:57.933Z,54.46
2023-05-18T14:19:26.552Z,53.08
2023-05-18T14:21:55.274Z,53.50
2023-05-18T14:24:23.937Z,53.49
2023-05-18T14:26:54.895Z,50.80
2023-05-18T14:29:24.262Z,51.32
2023-05-18T14:31:53.846Z,52.15
2023-05-18T14:34:22.839Z,49.41
2023-05-18T14:36:52.913Z,46.32
2023-05-18T14:39:21.723Z,48.30
2023-05-18T14:41:50.718Z,47.99
2023-05-18T14:44:20.998Z,47.62
2023-05-18T14:46:49.892Z,46.73
2023-05-18T14:49:19.632Z,45.76
2023-05-18T14:51:48.851Z,48.49
2023-05-18T14:54:19.110Z,46.18
2023-05-18T14:56:48.176Z,46.86
2023-05-18T14:59:16.983Z,44.76
2023-05-18T15:01:50.002Z,45.50
2023-05-18T15:04:19.402Z,45.84
2023-05-18T15:06:48.177Z,45.55
2023-05-18T15:09:17.489Z,46.16
2023-05-18T15:11:46.949Z,44.44
2023-05-18T15:14:15.500Z,45.01
2023-05-18T15:16:44.255Z,44.30
2023-05-18T15:19:14.407Z,42.87
2023-05-18T15:21:44.986Z,44.49
2023-05-18T15:24:13.618Z,44.02
2023-05-18T15:26:43.161Z,44.03
2023-05-18T15:29:11.580Z,42.84
2023-05-18T15:31:40.128Z,43.33
2023-05-18T15:34:09.501Z,43.33
2023-05-18T15:36:39.787Z,43.04
2023-05-18T15:39:09.450Z,44.35
2023-05-18T15:41:38.239Z,43.28
2023-05-18T15:44:09.724Z,43.65
2023-05-18T15:46:43.678Z,44.42
2023-05-18T15:49:14.414Z,44.61
2023-05-18T15:51:44.625Z,44.41
2023-05-18T15:54:17.334Z,44.60
2023-05-18T15:56:46.215Z,42.62
2023-05-18T15:59:14.935Z,43.06
2023-05-18T16:01:43.615Z,42.46
2023-05-18T16:04:12.769Z,42.99
2023-05-18T16:06:42.219Z,43.65
2023-05-18T16:09:13.674Z,43.77
2023-05-18T16:11:42.486Z,44.54
2023-05-18T16:14:11.434Z,44.08
2023-05-18T16:16:40.077Z,42.12
2023-05-18T16:19:08.864Z,43.55
2023-05-18T16:21:37.838Z,44.99
2023-05-18T16:24:07.519Z,45.67
2023-05-18T16:26:40.010Z,44.67
2023-05-18T16:29:09.320Z,44.94
2023-05-18T16:31:38.428Z,45.98
2023-05-18T16:34:07.315Z,43.58
2023-05-18T16:36:36.753Z,41.50
2023-05-18T16:39:08.001Z,42.58
2023-05-18T16:41:38.155Z,41.72
2023-05-18T16:44:07.177Z,43.23
2023-05-18T16:46:37.924Z,44.22
2023-05-18T16:49:06.563Z,43.32
2023-05-18T16:51:35.103Z,44.99
2023-05-18T16:54:05.843Z,46.54
2023-05-18T16:56:35.877Z,48.23
2023-05-18T16:59:06.415Z,49.34
2023-05-18T17:01:37.320Z,49.48
2023-05-18T17:04:06.551Z,49.29
2023-05-18T17:06:35.337Z,49.68
2023-05-18T17:09:06.261Z,49.18
2023-05-18T17:11:36.706Z,51.07
2023-05-18T17:14:07.111Z,50.27
2023-05-18T17:16:40.459Z,54.42
2023-05-18T17:19:09.449Z,60.95
2023-05-18T17:21:38.376Z,60.11
2023-05-18T17:24:07.591Z,62.20
2023-05-18T17:26:36.717Z,61.88
2023-05-18T17:29:06.942Z,67.94
2023-05-18T17:31:35.487Z,66.46
2023-05-18T17:34:04.481Z,66.91
2023-05-18T17:36:33.157Z,65.27
2023-05-18T17:39:02.195Z,69.94
2023-05-18T17:41:30.975Z,71.13
2023-05-18T17:43:59.606Z,68.36
2023-05-18T17:46:29.718Z,71.32
2023-05-18T17:48:58.225Z,71.28
2023-05-18T17:51:27.420Z,71.28
2023-05-18T17:53:56.743Z,75.38
2023-05-18T17:56:28.278Z,76.47
2023-05-18T17:58:58.969Z,75.06
2023-05-18T18:01:30.022Z,76.28
2023-05-18T18:03:59.066Z,75.39
2023-05-18T18:06:28.092Z,78.21
2023-05-18T18:08:59.192Z,76.28
2023-05-18T18:11:28.189Z,82.71
2023-05-18T18:13:57.083Z,80.16
2023-05-18T18:16:25.913Z,85.25
2023-05-18T18:18:59.618Z,85.90
2023-05-18T18:21:28.143Z,91.24
2023-05-18T18:23:56.738Z,88.41
2023-05-18T18:26:26.161Z,87.61
2023-05-18T18:28:55.192Z,92.68
2023-05-18T18:31:23.933Z,84.40
2023-05-18T18:33:52.701Z,88.76
2023-05-18T18:36:24.892Z,98.40
2023-05-18T18:38:55.001Z,94.01
2023-05-18T18:41:23.775Z,98.41
2023-05-18T18:43:54.189Z,98.63
2023-05-18T18:46:22.891Z,100.00
2023-05-18T18:48:51.506Z,100.00
2023-05-18T18:51:22.708Z,100.00
2023-05-18T18:53:52.335Z,100.00
2023-05-18T18:56:25.064Z,100.00
2023-05-18T18:58:56.693Z,100.00
2023-05-18T19:01:25.308Z,100.00
2023-05-18T19:03:55.779Z,100.00
2023-05-18T19:06:29.191Z,100.00
2023-05-18T19:08:57.992Z,100.00
2023-05-18T19:11:29.857Z,100.00
2023-05-18T19:13:58.905Z,100.00
2023-05-18T19:16:28.452Z,100.00
2023-05-18T19:18:57.342Z,100.00
2023-05-18T19:21:29.088Z,100.00
2023-05-18T19:23:59.310Z,100.00
2023-05-18T19:26:30.890Z,100.00
2023-05-18T19:29:00.255Z,100.00
2023-05-18T19:31:31.898Z,100.00
2023-05-18T19:34:01.517Z,100.00
2023-05-18T19:36:31.725Z,100.00
2023-05-18T19:39:00.882Z,100.00
2023-05-18T19:41:30.325Z,100.00
2023-05-18T19:43:59.785Z,100.00
2023-05-18T19:46:30.205Z,100.00
2023-05-18T19:48:59.487Z,100.00
2023-05-18T19:51:29.297Z,100.00
2023-05-18T19:54:00.022Z,100.00
2023-05-18T19:56:28.712Z,100.00
2023-05-18T19:58:58.016Z,100.00
2023-05-18T20:01:26.736Z,100.00
2023-05-18T20:03:56.947Z,100.00
2023-05-18T20:06:26.124Z,100.00
2023-05-18T20:08:55.207Z,100.00
2023-05-18T20:11:26.039Z,100.00
2023-05-18T20:13:54.927Z,100.00
2023-05-18T20:16:23.791Z,100.00
2023-05-18T20:18:52.433Z,100.00
2023-05-18T20:21:20.984Z,100.00
2023-05-18T20:23:51.215Z,100.00
2023-05-18T20:26:22.843Z,100.00
2023-05-18T20:28:53.090Z,100.00
2023-05-18T20:31:22.200Z,100.00
2023-05-18T20:33:50.970Z,100.00
2023-05-18T20:36:21.394Z,100.00
2023-05-18T20:38:50.597Z,100.00
2023-05-18T20:41:23.499Z,100.00
2023-05-18T20:43:53.934Z,100.00
2023-05-18T20:46:25.124Z,100.00
2023-05-18T20:48:55.368Z,100.00
2023-05-18T20:51:24.982Z,100.00
2023-05-18T20:53:53.585Z,100.00
2023-05-18T20:56:22.683Z,100.00
2023-05-18T20:58:52.688Z,100.00
2023-05-18T21:01:21.480Z,100.00
2023-05-18T21:03:50.135Z,100.00
2023-05-18T21:06:19.084Z,100.00
2023-05-18T21:08:48.157Z,100.00
2023-05-18T21:11:17.013Z,100.00
2023-05-18T21:13:45.998Z,100.00
2023-05-18T21:16:16.072Z,100.00
2023-05-18T21:18:44.757Z,100.00
2023-05-18T21:21:13.520Z,100.00
2023-05-18T21:23:42.011Z,100.00
2023-05-18T21:26:11.101Z,100.00
2023-05-18T21:28:39.800Z,100.00
2023-05-18T21:31:08.311Z,100.00
2023-05-18T21:33:38.323Z,100.00
2023-05-18T21:36:09.813Z,100.00
2023-05-18T21:38:38.364Z,100.00
2023-05-18T21:41:06.864Z,100.00
2023-05-18T21:43:35.205Z,100.00
2023-05-18T21:46:03.750Z,100.00
2023-05-18T21:48:33.385Z,100.00
2023-05-18T21:51:04.271Z,100.00
2023-05-18T21:53:32.805Z,100.00
2023-05-18T21:56:01.084Z,100.00
2023-05-18T21:58:29.787Z,100.00
2023-05-18T22:00:58.217Z,100.00
2023-05-18T22:03:26.713Z,100.00
2023-05-18T22:05:55.188Z,100.00
2023-05-18T22:08:25.082Z,100.00
2023-05-18T22:10:53.582Z,100.00
2023-05-18T22:13:22.419Z,100.00
2023-05-18T22:15:51.154Z,100.00
2023-05-18T22:18:19.595Z,100.00
2023-05-18T22:20:48.292Z,100.00
2023-05-18T22:23:16.666Z,100.00
2023-05-18T22:25:47.360Z,100.00
2023-05-18T22:28:21.328Z,100.00
2023-05-18T22:30:50.408Z,100.00
2023-05-18T22:33:21.033Z,100.00
2023-05-18T22:35:49.986Z,100.00
2023-05-18T22:38:18.943Z,100.00
2023-05-18T22:40:49.872Z,100.00
2023-05-18T22:43:18.493Z,100.00
2023-05-18T22:45:47.173Z,100.00
2023-05-18T22:48:16.144Z,100.00
2023-05-18T22:50:44.912Z,100.00
2023-05-18T22:53:14.367Z,100.00
2023-05-18T22:55:43.550Z,100.00
2023-05-18T22:58:14.003Z,100.00
2023-05-18T23:00:42.990Z,100.00
2023-05-18T23:03:14.062Z,100.00
2023-05-18T23:05:43.774Z,100.00
2023-05-18T23:08:13.266Z,100.00
2023-05-18T23:10:44.795Z,100.00
2023-05-18T23:13:17.078Z,100.00
2023-05-18T23:15:47.987Z,100.00
2023-05-18T23:18:17.586Z,100.00
2023-05-18T23:20:47.028Z,100.00
2023-05-18T23:23:16.558Z,100.00
2023-05-18T23:25:45.733Z,100.00
2023-05-18T23:28:16.734Z,100.00
2023-05-18T23:30:45.447Z,100.00
2023-05-18T23:33:16.781Z,100.00
2023-05-18T23:35:48.556Z,100.00
2023-05-18T23:38:22.181Z,100.00
2023-05-18T23:40:54.750Z,100.00
2023-05-18T23:43:27.779Z,100.00
2023-05-18T23:45:59.943Z,100.00
2023-05-18T23:48:31.459Z,100.00
2023-05-18T23:51:03.738Z,100.00
2023-05-18T23:53:34.758Z,100.00
2023-05-18T23:56:06.724Z,100.00
2023-05-18T23:58:38.374Z,100.00
